Time;durP1;ratioP1;P1;durP2;ratioP2;P2;SDS_P1;SDS_P2;PMS_P1;PMS_P2;Temp;Humidity;BMP_temperature;BMP_pressure;BME280_temperature;BME280_humidity;BME280_pressure;Samples;Min_cycle;Max_cycle;Signal;HPM_P1;HPM_P2
2021/04/23 00:02:04;;;;;;;8.50;2.80;;;4.70;99.90;;;;;;5044009;28;20644;-64
2021/04/23 00:04:30;;;;;;;8.32;2.35;;;4.70;99.90;;;;;;5048970;28;20083;-64
2021/04/23 00:06:57;;;;;;;6.43;2.17;;;4.60;99.90;;;;;;5048326;28;20036;-63
2021/04/23 00:09:27;;;;;;;16.73;2.00;;;4.60;99.90;;;;;;5048918;28;20037;-63
2021/04/23 00:11:56;;;;;;;11.55;2.40;;;4.60;99.90;;;;;;5031124;28;20041;-64
2021/04/23 00:14:45;;;;;;;7.68;2.30;;;4.60;99.90;;;;;;5049523;28;20059;-63
2021/04/23 00:17:12;;;;;;;4.85;2.20;;;4.50;99.90;;;;;;5045887;28;20048;-64
2021/04/23 00:19:39;;;;;;;17.90;2.83;;;4.50;99.90;;;;;;5048620;28;20409;-63
2021/04/23 00:22:06;;;;;;;7.88;2.65;;;4.50;99.90;;;;;;5048868;28;20035;-63
2021/04/23 00:24:32;;;;;;;8.82;2.38;;;4.40;99.90;;;;;;5048627;28;20041;-63
2021/04/23 00:26:58;;;;;;;7.60;2.20;;;4.40;99.90;;;;;;5048914;28;20527;-63
2021/04/23 00:29:24;;;;;;;8.68;1.95;;;4.40;99.90;;;;;;5049046;28;20040;-63
2021/04/23 00:34:37;;;;;;;14.65;2.03;;;4.30;99.90;;;;;;5048716;28;20457;-62
2021/04/23 00:37:03;;;;;;;7.78;1.90;;;4.30;99.90;;;;;;5048543;28;20033;-63
2021/04/23 00:39:29;;;;;;;7.40;1.80;;;4.30;99.90;;;;;;5047970;28;20409;-63
2021/04/23 00:41:56;;;;;;;7.68;2.72;;;4.20;99.90;;;;;;5048286;28;20060;-63
2021/04/23 00:44:21;;;;;;;12.45;2.95;;;4.20;99.90;;;;;;5049544;28;20102;-65
2021/04/23 00:46:47;;;;;;;8.98;1.98;;;4.20;99.90;;;;;;5050114;28;20731;-64
2021/04/23 00:49:13;;;;;;;9.05;2.40;;;4.20;99.90;;;;;;5048207;28;20044;-62
2021/04/23 00:51:42;;;;;;;5.85;1.70;;;4.10;99.90;;;;;;5047835;28;20040;-63
2021/04/23 00:54:09;;;;;;;9.63;1.90;;;4.10;99.90;;;;;;5048209;28;20036;-63
2021/04/23 00:56:37;;;;;;;10.48;2.90;;;4.10;99.90;;;;;;5044388;28;20077;-63
2021/04/23 00:59:05;;;;;;;4.07;1.67;;;4.10;99.90;;;;;;5047898;28;20036;-64
2021/04/23 01:01:43;;;;;;;7.72;2.40;;;4.10;99.90;;;;;;5047767;28;20079;-63
2021/04/23 01:04:14;;;;;;;8.82;2.42;;;4.00;99.90;;;;;;5026951;28;20029;-63
2021/04/23 01:06:40;;;;;;;14.82;2.63;;;4.00;99.90;;;;;;5047708;28;20143;-63
2021/04/23 01:09:13;;;;;;;9.07;2.63;;;4.00;99.90;;;;;;5047507;28;20036;-63
2021/04/23 01:11:40;;;;;;;13.35;2.53;;;4.00;99.90;;;;;;5044418;28;20069;-63
2021/04/23 01:14:06;;;;;;;4.10;2.00;;;3.90;99.90;;;;;;5029955;28;20033;-63
2021/04/23 01:16:31;;;;;;;6.28;2.30;;;3.90;99.90;;;;;;5047452;28;20037;-63
2021/04/23 01:18:57;;;;;;;11.82;3.80;;;3.90;99.90;;;;;;5045499;28;20089;-64
2021/04/23 01:21:26;;;;;;;12.65;2.60;;;3.90;99.90;;;;;;5046882;28;20033;-63
2021/04/23 01:23:53;;;;;;;8.00;2.40;;;3.80;99.90;;;;;;5048015;28;20037;-63
2021/04/23 01:26:21;;;;;;;5.28;2.30;;;3.80;99.90;;;;;;5047291;28;20029;-65
2021/04/23 01:28:49;;;;;;;11.07;3.00;;;3.80;99.90;;;;;;5046614;28;20056;-64
2021/04/23 01:31:17;;;;;;;11.35;2.95;;;3.80;99.90;;;;;;5029227;28;20037;-63
2021/04/23 01:33:46;;;;;;;10.55;2.47;;;3.80;99.90;;;;;;5029291;28;20095;-63
2021/04/23 01:36:12;;;;;;;14.63;2.88;;;3.80;99.90;;;;;;5046839;28;20045;-64
2021/04/23 01:38:41;;;;;;;11.43;2.45;;;3.80;99.90;;;;;;5046868;28;20379;-63
2021/04/23 01:41:07;;;;;;;9.18;2.30;;;3.80;99.90;;;;;;5045701;28;20116;-65
2021/04/23 01:43:34;;;;;;;7.70;3.38;;;3.80;99.90;;;;;;5029247;28;20497;-63
2021/04/23 01:46:01;;;;;;;14.43;2.88;;;3.70;99.90;;;;;;5045440;28;20042;-63
2021/04/23 01:48:26;;;;;;;14.10;2.90;;;3.70;99.90;;;;;;5045682;28;20683;-62
2021/04/23 01:50:52;;;;;;;8.40;2.63;;;3.70;99.90;;;;;;5046454;28;20078;-63
2021/04/23 01:53:19;;;;;;;7.80;2.70;;;3.70;99.90;;;;;;5042426;28;20041;-63
2021/04/23 01:55:45;;;;;;;11.13;2.85;;;3.60;99.90;;;;;;5028785;28;20128;-62
2021/04/23 01:58:12;;;;;;;10.95;3.13;;;3.60;99.90;;;;;;5046372;28;20144;-63
2021/04/23 02:00:47;;;;;;;12.35;3.40;;;3.60;99.90;;;;;;5047226;28;20344;-63
2021/04/23 02:03:13;;;;;;;17.75;4.50;;;3.60;99.90;;;;;;5046810;28;20033;-63
2021/04/23 02:05:41;;;;;;;10.27;2.85;;;3.50;99.90;;;;;;5047064;28;20025;-63
2021/04/23 02:08:07;;;;;;;9.10;3.67;;;3.50;99.90;;;;;;5028829;28;20406;-63
2021/04/23 02:10:42;;;;;;;12.90;3.38;;;3.50;99.90;;;;;;5046642;28;20501;-63
2021/04/23 02:13:08;;;;;;;11.55;3.15;;;3.50;99.90;;;;;;5044351;28;20470;-63
2021/04/23 02:15:34;;;;;;;18.73;4.10;;;3.50;99.90;;;;;;5028215;28;20040;-64
2021/04/23 02:18:00;;;;;;;8.70;3.08;;;3.60;99.90;;;;;;5024120;28;20029;-63
2021/04/23 02:20:29;;;;;;;17.70;3.58;;;3.50;99.90;;;;;;5045719;28;20040;-63
2021/04/23 02:22:58;;;;;;;13.32;3.85;;;3.50;99.90;;;;;;5046819;28;20056;-63
2021/04/23 02:25:23;;;;;;;10.13;3.22;;;3.50;99.90;;;;;;5046034;28;20033;-63
2021/04/23 02:27:50;;;;;;;11.88;4.05;;;3.50;99.90;;;;;;5046990;28;20036;-63
2021/04/23 02:30:28;;;;;;;15.45;4.18;;;3.50;99.90;;;;;;5027427;28;20040;-63
2021/04/23 02:32:55;;;;;;;12.70;4.10;;;3.40;99.90;;;;;;5046962;28;20041;-63
2021/04/23 02:35:25;;;;;;;13.15;3.47;;;3.40;99.90;;;;;;5046471;28;20150;-63
2021/04/23 02:37:51;;;;;;;12.98;3.50;;;3.40;99.90;;;;;;5047197;28;20040;-63
2021/04/23 02:40:20;;;;;;;10.90;3.63;;;3.40;99.90;;;;;;5046393;28;20044;-63
2021/04/23 02:42:47;;;;;;;9.70;2.78;;;3.40;99.90;;;;;;5047606;28;20029;-63
2021/04/23 02:45:16;;;;;;;10.93;3.45;;;3.40;99.90;;;;;;5048172;28;20037;-63
2021/04/23 02:47:43;;;;;;;9.93;3.70;;;3.30;99.90;;;;;;5048504;28;20063;-63
2021/04/23 02:50:10;;;;;;;16.55;3.72;;;3.40;99.90;;;;;;5064403;28;20036;-64
2021/04/23 02:52:36;;;;;;;11.07;3.78;;;3.40;99.90;;;;;;5070180;28;20029;-64
2021/04/23 02:55:05;;;;;;;15.43;3.85;;;3.40;99.90;;;;;;5070274;28;20052;-63
2021/04/23 02:57:31;;;;;;;16.23;3.60;;;3.30;99.90;;;;;;5045500;28;20040;-63
2021/04/23 02:59:57;;;;;;;9.32;3.33;;;3.30;99.90;;;;;;5047793;28;20033;-63
2021/04/23 03:02:23;;;;;;;16.23;3.72;;;3.30;99.90;;;;;;5046370;28;20521;-64
2021/04/23 03:04:50;;;;;;;8.90;3.75;;;3.30;99.90;;;;;;5046393;28;20048;-63
2021/04/23 03:07:19;;;;;;;11.32;4.40;;;3.30;99.90;;;;;;5046520;28;20123;-63
2021/04/23 03:09:44;;;;;;;13.93;3.88;;;3.30;99.90;;;;;;5045555;28;20037;-63
2021/04/23 03:12:10;;;;;;;10.05;3.83;;;3.30;99.90;;;;;;5046755;28;20039;-63
2021/04/23 03:14:36;;;;;;;13.43;4.18;;;3.20;99.90;;;;;;5046192;28;20041;-63
2021/04/23 03:17:01;;;;;;;20.13;5.07;;;3.20;99.90;;;;;;5045777;28;20040;-63
2021/04/23 03:19:27;;;;;;;12.68;4.28;;;3.20;99.90;;;;;;5045966;28;20029;-63
2021/04/23 03:21:53;;;;;;;11.20;4.90;;;3.30;99.90;;;;;;5048262;28;20029;-63
2021/04/23 03:24:19;;;;;;;16.88;4.05;;;3.30;99.90;;;;;;5031166;28;20044;-63
2021/04/23 03:26:45;;;;;;;10.23;4.00;;;3.30;99.90;;;;;;5044659;28;20037;-63
2021/04/23 03:29:13;;;;;;;10.68;3.58;;;3.20;99.90;;;;;;5046054;28;20685;-63
2021/04/23 03:31:39;;;;;;;13.82;4.43;;;3.20;99.90;;;;;;5048517;28;20490;-64
2021/04/23 03:34:05;;;;;;;13.75;3.80;;;3.20;99.90;;;;;;5049725;28;20095;-63
2021/04/23 03:36:32;;;;;;;11.52;3.55;;;3.10;99.90;;;;;;5048808;28;20037;-63
2021/04/23 03:38:58;;;;;;;13.75;4.30;;;3.10;99.90;;;;;;5049020;28;20037;-63
2021/04/23 03:41:29;;;;;;;11.90;3.95;;;3.10;99.90;;;;;;5049116;28;20032;-63
2021/04/23 03:43:55;;;;;;;15.05;4.28;;;3.00;99.90;;;;;;5045189;28;20041;-63
2021/04/23 03:46:21;;;;;;;16.27;4.25;;;3.00;99.90;;;;;;5043320;28;20041;-63
2021/04/23 03:48:48;;;;;;;14.68;4.03;;;2.90;99.90;;;;;;5047941;28;20037;-63
2021/04/23 03:51:16;;;;;;;15.88;3.67;;;2.90;99.90;;;;;;5046950;28;20047;-63
2021/04/23 03:53:42;;;;;;;9.18;4.07;;;2.90;99.90;;;;;;5048221;28;20033;-63
2021/04/23 03:56:08;;;;;;;11.98;4.45;;;2.80;99.90;;;;;;5049014;28;20453;-63
2021/04/23 03:58:35;;;;;;;16.42;3.90;;;2.80;99.90;;;;;;5047952;28;20053;-64
2021/04/23 04:01:10;;;;;;;18.25;4.38;;;2.80;99.90;;;;;;5048464;28;20041;-63
2021/04/23 04:03:36;;;;;;;14.77;3.90;;;2.80;99.90;;;;;;5046508;28;20029;-63
2021/04/23 04:06:04;;;;;;;13.10;4.13;;;2.70;99.90;;;;;;5048937;28;20139;-63
2021/04/23 04:08:30;;;;;;;10.50;4.57;;;2.70;99.90;;;;;;5047764;28;20025;-63
2021/04/23 04:10:56;;;;;;;16.52;6.10;;;2.70;99.90;;;;;;5047780;28;20163;-63
2021/04/23 04:13:22;;;;;;;14.90;3.92;;;2.70;99.90;;;;;;5047960;28;20052;-63
2021/04/23 04:15:47;;;;;;;18.80;4.35;;;2.70;99.90;;;;;;5047800;28;20043;-63
2021/04/23 04:18:13;;;;;;;12.32;3.22;;;2.70;99.90;;;;;;5047464;28;20045;-63
2021/04/23 04:20:43;;;;;;;14.68;4.70;;;2.70;99.90;;;;;;5047779;28;20048;-63
2021/04/23 04:23:14;;;;;;;14.05;4.97;;;2.60;99.90;;;;;;5048404;28;20116;-63
2021/04/23 04:25:40;;;;;;;16.52;4.35;;;2.60;99.90;;;;;;5047311;28;20036;-63
2021/04/23 04:28:06;;;;;;;18.38;4.50;;;2.60;99.90;;;;;;5047907;28;20025;-63
2021/04/23 04:30:33;;;;;;;12.68;3.55;;;2.60;99.90;;;;;;5050324;28;20036;-63
2021/04/23 04:32:59;;;;;;;14.68;4.32;;;2.60;99.90;;;;;;5029849;28;20833;-63
2021/04/23 04:35:26;;;;;;;14.82;4.30;;;2.60;99.90;;;;;;5055079;28;20410;-63
2021/04/23 04:37:52;;;;;;;20.20;4.72;;;2.60;99.90;;;;;;5047573;28;20566;-63
2021/04/23 04:40:18;;;;;;;11.07;3.90;;;2.60;99.90;;;;;;5047503;28;20040;-63
2021/04/23 04:42:44;;;;;;;16.67;4.15;;;2.60;99.90;;;;;;5046866;28;20132;-63
2021/04/23 04:45:14;;;;;;;11.88;4.63;;;2.60;99.90;;;;;;5032548;28;20123;-63
2021/04/23 04:47:40;;;;;;;13.35;4.25;;;2.60;99.90;;;;;;5050021;28;20128;-63
2021/04/23 04:50:10;;;;;;;9.88;4.15;;;2.60;99.90;;;;;;5049883;28;20119;-63
2021/04/23 04:52:36;;;;;;;19.67;5.07;;;2.60;99.90;;;;;;5048488;28;20395;-63
2021/04/23 04:55:05;;;;;;;19.52;5.68;;;2.60;99.90;;;;;;5047103;28;20028;-65
2021/04/23 04:57:33;;;;;;;22.38;4.32;;;2.70;99.90;;;;;;5041284;28;20094;-65
2021/04/23 04:59:58;;;;;;;12.50;4.38;;;2.70;99.90;;;;;;5046363;28;20044;-65
2021/04/23 05:02:24;;;;;;;19.45;5.60;;;2.80;99.90;;;;;;5046958;28;20025;-66
2021/04/23 05:04:50;;;;;;;16.08;4.65;;;2.90;99.90;;;;;;5042765;28;20037;-65
2021/04/23 05:07:15;;;;;;;19.38;4.50;;;3.00;99.90;;;;;;5046494;28;20097;-64
2021/04/23 05:09:41;;;;;;;16.98;5.70;;;3.00;99.90;;;;;;5044399;28;20422;-66
2021/04/23 05:12:06;;;;;;;12.13;4.95;;;3.00;99.90;;;;;;5046302;28;20041;-65
2021/04/23 05:14:32;;;;;;;13.45;4.38;;;3.00;99.90;;;;;;5046751;28;20049;-65
2021/04/23 05:16:58;;;;;;;13.88;5.32;;;3.00;99.90;;;;;;5043928;28;20449;-65
2021/04/23 05:19:23;;;;;;;16.50;4.53;;;3.00;99.90;;;;;;5042821;28;20029;-65
2021/04/23 05:21:49;;;;;;;15.02;3.78;;;3.00;99.90;;;;;;5041476;28;20028;-65
2021/04/23 05:24:14;;;;;;;14.48;4.13;;;3.10;99.90;;;;;;5046423;28;20044;-65
2021/04/23 05:26:40;;;;;;;12.77;3.47;;;3.10;99.90;;;;;;5047123;28;20033;-65
2021/04/23 05:29:06;;;;;;;10.93;3.97;;;3.20;99.90;;;;;;5045928;28;20129;-64
2021/04/23 05:31:32;;;;;;;15.93;3.95;;;3.30;99.90;;;;;;5046311;28;20179;-65
2021/04/23 05:33:59;;;;;;;14.73;5.18;;;3.30;99.90;;;;;;5046612;28;20061;-64
2021/04/23 05:36:24;;;;;;;18.73;4.32;;;3.40;99.90;;;;;;5046037;28;20037;-64
2021/04/23 05:38:50;;;;;;;11.82;3.92;;;3.50;99.90;;;;;;5046425;28;20501;-65
2021/04/23 05:41:16;;;;;;;8.07;3.50;;;3.50;99.90;;;;;;5046128;28;20159;-66
2021/04/23 05:43:44;;;;;;;12.00;4.15;;;3.70;99.90;;;;;;5046979;28;20040;-64
2021/04/23 05:46:10;;;;;;;9.32;3.28;;;3.70;99.90;;;;;;5046027;28;20202;-65
2021/04/23 05:48:36;;;;;;;14.05;3.45;;;3.90;99.90;;;;;;5046269;28;20135;-65
2021/04/23 05:51:01;;;;;;;9.07;3.15;;;4.10;99.90;;;;;;5045908;28;20116;-64
2021/04/23 05:53:27;;;;;;;12.02;3.00;;;4.60;99.90;;;;;;5046146;28;20040;-65
2021/04/23 05:55:52;;;;;;;7.57;3.35;;;5.90;99.90;;;;;;5046544;28;20048;-65
2021/04/23 05:58:18;;;;;;;7.53;2.40;;;7.60;99.90;;;;;;5046041;28;20379;-65
2021/04/23 06:00:44;;;;;;;6.93;2.17;;;9.40;99.90;;;;;;5046216;28;20025;-66
2021/04/23 06:03:11;;;;;;;7.03;1.83;;;11.10;99.90;;;;;;5042681;28;20409;-66
2021/04/23 06:05:37;;;;;;;7.95;1.80;;;12.70;99.90;;;;;;5046154;28;20025;-66
2021/04/23 06:08:07;;;;;;;9.02;2.03;;;13.80;99.90;;;;;;5045717;28;20040;-66
2021/04/23 06:10:33;;;;;;;7.22;1.70;;;15.00;99.40;;;;;;5046145;28;20552;-66
2021/04/23 06:12:59;;;;;;;4.00;1.60;;;15.60;94.80;;;;;;5046269;28;20041;-66
2021/04/23 06:15:26;;;;;;;8.27;1.85;;;16.00;89.20;;;;;;5044983;28;20036;-66
2021/04/23 06:17:54;;;;;;;7.78;1.65;;;15.90;83.30;;;;;;5027608;28;20308;-66
2021/04/23 06:20:22;;;;;;;4.18;1.33;;;15.70;78.20;;;;;;5046298;28;20094;-66
2021/04/23 06:22:48;;;;;;;4.07;1.63;;;15.00;78.80;;;;;;5043132;28;20119;-66
2021/04/23 06:25:16;;;;;;;5.85;1.40;;;14.10;80.60;;;;;;5046608;28;20116;-65
2021/04/23 06:27:43;;;;;;;6.00;1.10;;;13.40;85.20;;;;;;5045838;28;20037;-65
2021/04/23 06:30:12;;;;;;;7.30;1.48;;;12.40;91.30;;;;;;5045640;28;20086;-66
2021/04/23 06:32:41;;;;;;;8.07;1.17;;;11.60;95.00;;;;;;5047334;28;21190;-66
2021/04/23 06:35:09;;;;;;;7.57;1.92;;;10.80;98.40;;;;;;5059813;28;20041;-66
2021/04/23 06:37:34;;;;;;;5.30;1.20;;;10.20;99.90;;;;;;5063801;28;20064;-66
2021/04/23 06:40:00;;;;;;;4.95;1.60;;;9.80;99.90;;;;;;5064136;28;20041;-66
2021/04/23 06:42:25;;;;;;;8.43;1.63;;;10.00;99.90;;;;;;5057199;28;20422;-66
2021/04/23 06:44:51;;;;;;;13.98;1.55;;;10.50;99.90;;;;;;5048355;28;20057;-66
2021/04/23 06:47:16;;;;;;;4.63;1.20;;;11.10;99.90;;;;;;5047707;28;20202;-65
2021/04/23 06:49:42;;;;;;;8.13;1.85;;;11.60;99.90;;;;;;5044859;28;20053;-66
2021/04/23 06:52:07;;;;;;;6.45;1.63;;;12.70;99.40;;;;;;5045684;28;20208;-66
2021/04/23 06:54:33;;;;;;;6.93;1.27;;;13.90;94.30;;;;;;5045499;28;20041;-66
2021/04/23 06:56:59;;;;;;;7.22;1.27;;;15.00;81.70;;;;;;5045957;28;20033;-66
2021/04/23 06:59:24;;;;;;;6.95;1.08;;;15.80;75.20;;;;;;5045207;28;20079;-67
2021/04/23 07:01:50;;;;;;;6.53;1.38;;;16.70;67.00;;;;;;5045229;28;20361;-67
2021/04/23 07:04:15;;;;;;;4.10;1.10;;;17.60;61.80;;;;;;5045915;28;20065;-66
2021/04/23 07:06:42;;;;;;;2.60;0.88;;;18.40;57.80;;;;;;5048466;28;20083;-65
2021/04/23 07:09:08;;;;;;;6.10;1.20;;;19.00;52.90;;;;;;5048249;28;20075;-65
2021/04/23 07:11:34;;;;;;;9.25;1.27;;;18.50;51.70;;;;;;5047956;28;20576;-64
2021/04/23 07:14:00;;;;;;;4.00;1.25;;;18.50;52.20;;;;;;5048765;28;20041;-65
2021/04/23 07:16:25;;;;;;;3.03;0.77;;;19.00;50.20;;;;;;5049058;28;20090;-65
2021/04/23 07:18:51;;;;;;;5.55;0.93;;;18.50;50.10;;;;;;5047961;28;20447;-65
2021/04/23 07:21:17;;;;;;;4.80;1.05;;;19.10;49.70;;;;;;5048545;28;20044;-64
2021/04/23 07:23:42;;;;;;;8.82;1.17;;;19.30;48.10;;;;;;5048021;28;20477;-64
2021/04/23 07:26:08;;;;;;;5.05;0.93;;;18.80;47.90;;;;;;5048558;28;20056;-64
2021/04/23 07:28:34;;;;;;;6.13;1.10;;;18.20;49.40;;;;;;5048235;28;20544;-64
2021/04/23 07:30:59;;;;;;;7.55;1.20;;;17.80;50.90;;;;;;5049231;28;20083;-64
2021/04/23 07:33:25;;;;;;;4.00;1.08;;;17.40;50.70;;;;;;5049627;28;20309;-65
2021/04/23 07:35:51;;;;;;;7.22;0.73;;;17.00;53.10;;;;;;5048605;28;20494;-65
2021/04/23 07:38:17;;;;;;;8.07;1.15;;;16.70;52.30;;;;;;5048632;28;20367;-64
2021/04/23 07:40:44;;;;;;;6.53;1.20;;;16.30;53.10;;;;;;5048341;28;20033;-64
2021/04/23 07:43:10;;;;;;;7.25;0.93;;;15.90;53.80;;;;;;5048924;28;20033;-64
2021/04/23 07:45:35;;;;;;;8.55;1.60;;;15.50;55.40;;;;;;5048532;28;20044;-64
2021/04/23 07:48:01;;;;;;;9.40;1.40;;;14.90;56.70;;;;;;5048206;28;20029;-64
2021/04/23 07:50:27;;;;;;;6.30;1.20;;;14.40;58.50;;;;;;5049133;28;20382;-64
2021/04/23 07:52:54;;;;;;;6.75;0.95;;;13.70;60.80;;;;;;5048772;28;20105;-64
2021/04/23 07:55:22;;;;;;;7.07;1.25;;;13.40;62.70;;;;;;5050810;28;20281;-64
2021/04/23 07:57:48;;;;;;;9.77;1.83;;;13.20;64.70;;;;;;5048741;28;20037;-64
2021/04/23 08:00:17;;;;;;;9.10;1.30;;;12.80;67.10;;;;;;5048924;28;20533;-64
2021/04/23 08:02:43;;;;;;;8.13;1.27;;;12.70;71.00;;;;;;5045270;28;20463;-64
2021/04/23 08:05:11;;;;;;;10.63;1.92;;;12.70;71.10;;;;;;5049924;28;20082;-64
2021/04/23 08:07:37;;;;;;;7.38;1.30;;;12.70;70.80;;;;;;5048703;28;20068;-64
2021/04/23 08:10:03;;;;;;;5.40;1.00;;;12.60;74.70;;;;;;5048081;28;20478;-65
2021/04/23 08:12:29;;;;;;;9.48;1.77;;;12.60;75.80;;;;;;5048765;28;20049;-65
2021/04/23 08:14:54;;;;;;;9.50;1.50;;;12.60;75.70;;;;;;5049998;28;20086;-64
2021/04/23 08:17:20;;;;;;;7.90;1.30;;;12.70;76.60;;;;;;5029795;28;20045;-64
2021/04/23 08:19:45;;;;;;;9.43;1.33;;;12.60;76.90;;;;;;5053692;28;20127;-64
2021/04/23 08:22:11;;;;;;;9.35;1.90;;;12.70;79.30;;;;;;5055717;28;20040;-64
2021/04/23 08:24:36;;;;;;;20.25;2.42;;;12.70;76.80;;;;;;5053603;28;20025;-64
2021/04/23 08:27:02;;;;;;;8.68;1.30;;;12.60;76.20;;;;;;5049049;28;21238;-64
2021/04/23 08:29:28;;;;;;;4.72;1.52;;;12.70;77.40;;;;;;5044165;28;20478;-64
2021/04/23 08:31:53;;;;;;;5.70;1.35;;;12.60;78.50;;;;;;5043864;28;20144;-64
2021/04/23 08:34:19;;;;;;;5.97;1.02;;;12.50;78.50;;;;;;5030615;28;20041;-64
2021/04/23 08:36:44;;;;;;;8.30;1.50;;;12.40;80.70;;;;;;5048267;28;20395;-64
2021/04/23 08:39:11;;;;;;;5.63;1.10;;;12.50;80.90;;;;;;5043930;28;20029;-64
2021/04/23 08:41:39;;;;;;;8.55;1.35;;;12.50;78.40;;;;;;5046998;28;20035;-65
2021/04/23 08:44:06;;;;;;;5.18;1.02;;;12.40;77.10;;;;;;5045927;28;20037;-64
2021/04/23 08:46:33;;;;;;;8.25;1.00;;;12.20;78.60;;;;;;5048953;28;20048;-64
2021/04/23 08:49:00;;;;;;;7.47;1.65;;;12.20;78.60;;;;;;5046065;28;20037;-64
2021/04/23 08:51:27;;;;;;;4.25;1.00;;;12.20;79.00;;;;;;5051261;28;20043;-64
2021/04/23 08:53:54;;;;;;;6.13;1.25;;;12.10;80.20;;;;;;5051076;28;20398;-64
2021/04/23 08:56:20;;;;;;;7.72;1.20;;;12.00;80.80;;;;;;5050964;28;20033;-63
2021/04/23 08:58:49;;;;;;;8.35;1.27;;;12.10;79.50;;;;;;5047168;28;20082;-64
2021/04/23 09:01:15;;;;;;;9.30;1.25;;;12.20;80.00;;;;;;5048250;28;20037;-64
2021/04/23 09:03:41;;;;;;;9.32;1.17;;;12.00;80.80;;;;;;5052390;28;20364;-64
2021/04/23 09:06:14;;;;;;;7.10;1.20;;;12.00;80.30;;;;;;5046244;28;20033;-63
2021/04/23 09:08:52;;;;;;;4.38;0.75;;;12.10;79.50;;;;;;5047535;28;20039;-65
2021/04/23 09:11:21;;;;;;;10.95;2.42;;;12.10;82.30;;;;;;5045755;28;20401;-64
2021/04/23 09:13:59;;;;;;;5.00;1.02;;;12.20;79.70;;;;;;5048141;28;20108;-64
2021/04/23 09:16:52;;;;;;;9.52;1.63;;;12.10;77.50;;;;;;5046756;28;20041;-65
2021/04/23 09:19:27;;;;;;;5.07;1.52;;;12.20;78.50;;;;;;5047819;28;20060;-64
2021/04/23 09:22:19;;;;;;;4.68;1.35;;;12.00;78.70;;;;;;5046784;28;20036;-64
2021/04/23 09:24:56;;;;;;;6.75;0.88;;;12.00;79.60;;;;;;5048571;28;20088;-64
2021/04/23 09:27:26;;;;;;;4.43;1.10;;;12.20;78.10;;;;;;5030802;28;20111;-64
2021/04/23 09:29:54;;;;;;;2.25;0.80;;;12.10;76.70;;;;;;5042835;28;20116;-64
2021/04/23 09:32:34;;;;;;;5.25;1.17;;;12.00;73.60;;;;;;5046065;28;20421;-63
2021/04/23 09:35:19;;;;;;;4.78;0.85;;;11.90;78.90;;;;;;5027994;28;20442;-64
2021/04/23 09:37:47;;;;;;;4.47;1.60;;;12.00;83.30;;;;;;5045569;28;20052;-63
2021/04/23 09:40:18;;;;;;;7.78;0.90;;;12.10;79.70;;;;;;5046378;28;20552;-62
2021/04/23 09:42:52;;;;;;;6.75;0.90;;;12.20;78.30;;;;;;5045950;28;20470;-63
2021/04/23 09:45:24;;;;;;;5.47;0.93;;;12.20;76.90;;;;;;5046627;28;20124;-64
2021/04/23 09:47:51;;;;;;;6.00;1.13;;;12.10;77.30;;;;;;5023777;28;20041;-64
2021/04/23 09:50:18;;;;;;;6.05;1.08;;;12.10;77.10;;;;;;5044300;28;20120;-65
2021/04/23 09:52:52;;;;;;;5.80;0.90;;;12.20;79.20;;;;;;5043081;28;20048;-64
2021/04/23 09:55:24;;;;;;;7.65;1.77;;;12.20;78.40;;;;;;5041259;28;20506;-63
2021/04/23 09:57:52;;;;;;;7.10;1.02;;;12.30;78.70;;;;;;5025792;28;20143;-63
2021/04/23 10:00:20;;;;;;;6.05;1.20;;;12.30;78.30;;;;;;5026552;28;20082;-63
2021/04/23 10:02:49;;;;;;;7.80;1.02;;;12.50;79.30;;;;;;5040522;28;20048;-62
2021/04/23 10:05:28;;;;;;;7.40;1.08;;;12.80;75.60;;;;;;5046886;28;20037;-64
2021/04/23 10:07:54;;;;;;;4.63;1.02;;;12.80;74.30;;;;;;5045728;28;20052;-64
2021/04/23 10:10:19;;;;;;;6.40;1.05;;;12.90;73.90;;;;;;5045128;28;20029;-64
2021/04/23 10:12:51;;;;;;;4.45;1.38;;;12.90;72.10;;;;;;5047138;28;20531;-63
2021/04/23 10:15:24;;;;;;;4.18;0.70;;;12.80;70.50;;;;;;5052156;28;20037;-64
2021/04/23 10:17:55;;;;;;;8.07;1.50;;;12.70;73.60;;;;;;5036981;28;20033;-64
2021/04/23 10:20:24;;;;;;;8.57;1.35;;;12.90;75.00;;;;;;5065360;28;20033;-65
2021/04/23 10:22:50;;;;;;;5.80;1.42;;;12.70;73.60;;;;;;5067007;28;20089;-66
2021/04/23 10:25:17;;;;;;;4.13;1.25;;;12.80;74.10;;;;;;5065455;28;20040;-65
2021/04/23 10:27:44;;;;;;;8.50;1.58;;;12.80;73.10;;;;;;5055701;28;20033;-64
2021/04/23 10:30:13;;;;;;;8.93;1.30;;;12.80;74.90;;;;;;5030002;28;20147;-64
2021/04/23 10:32:39;;;;;;;9.90;1.55;;;12.90;76.10;;;;;;5049326;28;20029;-64
2021/04/23 10:35:06;;;;;;;5.95;1.00;;;12.90;74.50;;;;;;5044903;28;20059;-63
2021/04/23 10:37:32;;;;;;;10.00;1.42;;;12.90;74.50;;;;;;5042288;28;20501;-63
2021/04/23 10:39:58;;;;;;;6.65;0.98;;;12.90;74.80;;;;;;5040316;28;20346;-63
2021/04/23 10:42:54;;;;;;;7.38;1.08;;;12.90;74.40;;;;;;5040493;28;20033;-63
2021/04/23 10:45:24;;;;;;;6.07;1.73;;;12.90;76.60;;;;;;5021208;28;20037;-63
2021/04/23 10:47:52;;;;;;;7.43;1.10;;;13.10;75.70;;;;;;5042347;28;20068;-63
2021/04/23 10:50:36;;;;;;;16.70;1.77;;;13.20;74.80;;;;;;5043193;28;20036;-64
2021/04/23 10:53:15;;;;;;;11.07;1.17;;;13.30;74.80;;;;;;5040829;28;20033;-63
2021/04/23 10:55:44;;;;;;;7.95;1.02;;;13.30;74.00;;;;;;5041874;28;20052;-64
2021/04/23 10:58:35;;;;;;;5.82;1.08;;;13.20;74.10;;;;;;5044014;28;20040;-64
2021/04/23 11:01:18;;;;;;;7.32;1.38;;;13.30;74.90;;;;;;5043523;28;20033;-64
2021/04/23 11:03:56;;;;;;;4.82;1.50;;;13.40;75.60;;;;;;5026169;28;20037;-64
2021/04/23 11:06:21;;;;;;;7.38;1.50;;;13.30;73.70;;;;;;5042640;28;20226;-64
2021/04/23 11:08:59;;;;;;;11.30;1.42;;;13.30;73.20;;;;;;5041949;28;20496;-64
2021/04/23 11:11:26;;;;;;;6.70;1.77;;;13.40;77.10;;;;;;5038967;28;20473;-63
2021/04/23 11:13:53;;;;;;;7.15;1.17;;;13.50;75.60;;;;;;5025185;28;20033;-64
2021/04/23 11:19:16;;;;;;;7.05;1.30;;;13.40;75.40;;;;;;5044561;28;20417;-64
2021/04/23 11:21:42;;;;;;;4.32;1.27;;;13.30;75.80;;;;;;5042111;28;20033;-63
2021/04/23 11:24:13;;;;;;;6.57;1.17;;;13.20;79.20;;;;;;5042606;28;20048;-64
2021/04/23 11:27:01;;;;;;;7.70;1.60;;;13.40;79.70;;;;;;5041738;28;20094;-64
2021/04/23 11:29:52;;;;;;;7.40;1.70;;;13.20;77.30;;;;;;5022756;28;20037;-66
2021/04/23 11:32:42;;;;;;;9.65;1.42;;;13.30;78.70;;;;;;5036691;28;20033;-63
2021/04/23 11:35:10;;;;;;;4.78;1.33;;;13.20;79.20;;;;;;5040392;28;20049;-64
2021/04/23 11:37:42;;;;;;;6.70;1.65;;;13.30;77.90;;;;;;5044363;28;20129;-67
2021/04/23 11:40:27;;;;;;;9.70;1.98;;;13.20;78.50;;;;;;5039754;28;20071;-64
2021/04/23 11:42:58;;;;;;;5.57;1.10;;;13.30;79.90;;;;;;5041253;28;20033;-63
2021/04/23 11:45:24;;;;;;;5.63;1.20;;;13.20;78.00;;;;;;5045262;28;20039;-64
2021/04/23 11:47:51;;;;;;;9.27;1.70;;;13.10;79.10;;;;;;5041800;28;20529;-65
2021/04/23 11:50:20;;;;;;;6.10;1.45;;;13.10;79.60;;;;;;5018456;28;20041;-64
2021/04/23 11:52:54;;;;;;;9.05;1.20;;;13.10;80.70;;;;;;5023715;28;20052;-64
2021/04/23 11:55:21;;;;;;;8.13;1.25;;;13.00;78.80;;;;;;5041719;28;20037;-64
2021/04/23 11:57:49;;;;;;;6.32;1.48;;;13.00;80.10;;;;;;5044888;28;20032;-63
2021/04/23 12:00:18;;;;;;;8.85;1.30;;;13.10;81.40;;;;;;5044995;28;20121;-64
2021/04/23 12:02:55;;;;;;;6.25;1.25;;;13.10;81.00;;;;;;5038879;28;20033;-64
2021/04/23 12:05:35;;;;;;;8.80;1.10;;;13.10;82.10;;;;;;5034913;28;20034;-63
2021/04/23 12:08:05;;;;;;;4.10;1.10;;;13.10;80.80;;;;;;5040021;28;20033;-63
2021/04/23 12:10:33;;;;;;;6.88;1.65;;;13.10;80.90;;;;;;5031735;28;20072;-64
2021/04/23 12:12:58;;;;;;;8.73;1.75;;;13.10;84.50;;;;;;5046617;28;20041;-64
2021/04/23 12:15:28;;;;;;;11.93;1.30;;;13.20;84.70;;;;;;5046636;28;20322;-64
2021/04/23 12:17:54;;;;;;;10.15;1.45;;;13.20;82.70;;;;;;5048270;28;20036;-64
2021/04/23 12:20:23;;;;;;;9.10;1.77;;;13.20;83.80;;;;;;5042571;28;20070;-64
2021/04/23 12:22:50;;;;;;;7.13;1.30;;;13.30;84.80;;;;;;5048208;28;20636;-65
2021/04/23 12:25:19;;;;;;;4.60;1.30;;;13.40;84.30;;;;;;5042306;28;20038;-64
2021/04/23 12:27:45;;;;;;;9.93;1.70;;;13.40;81.50;;;;;;5047405;28;20163;-63
2021/04/23 12:30:11;;;;;;;4.82;1.30;;;13.40;82.00;;;;;;5025535;28;20112;-64
2021/04/23 12:32:48;;;;;;;8.57;1.58;;;13.50;83.10;;;;;;5044468;28;20034;-64
2021/04/23 12:35:13;;;;;;;6.70;1.73;;;13.60;82.30;;;;;;5045086;28;20806;-64
2021/04/23 12:37:47;;;;;;;12.43;1.70;;;13.50;81.00;;;;;;5040394;28;20040;-64
2021/04/23 12:40:33;;;;;;;7.47;1.50;;;13.50;81.40;;;;;;5044456;28;20045;-64
2021/04/23 12:42:58;;;;;;;3.75;1.20;;;13.40;83.40;;;;;;5044224;28;20061;-64
2021/04/23 12:45:24;;;;;;;8.68;1.67;;;13.40;80.30;;;;;;5042902;28;20060;-64
2021/04/23 12:47:50;;;;;;;4.57;1.60;;;13.30;82.70;;;;;;5028912;28;20037;-64
2021/04/23 12:50:29;;;;;;;3.75;1.55;;;13.20;81.20;;;;;;5045589;28;20056;-64
2021/04/23 12:52:55;;;;;;;11.57;2.17;;;13.20;83.90;;;;;;5047694;28;20628;-64
2021/04/23 12:55:21;;;;;;;8.00;1.83;;;13.20;83.60;;;;;;5046401;28;20382;-64
2021/04/23 12:57:47;;;;;;;9.63;2.50;;;13.20;84.90;;;;;;5029090;28;20033;-64
2021/04/23 13:00:15;;;;;;;7.78;1.70;;;13.20;85.10;;;;;;5045799;28;20127;-64